createdAt,value
2018-12-09T00:01:29.451Z,8.60
2018-12-09T00:03:57.912Z,8.60
2018-12-09T00:06:26.310Z,8.60
2018-12-09T00:08:54.730Z,8.60
2018-12-09T00:11:23.163Z,8.60
2018-12-09T00:13:51.555Z,8.60
2018-12-09T00:16:19.986Z,8.60
2018-12-09T00:18:48.403Z,8.60
2018-12-09T00:21:16.787Z,8.70
2018-12-09T00:23:45.193Z,8.70
2018-12-09T00:26:13.606Z,8.70
2018-12-09T00:28:45.703Z,8.70
2018-12-09T00:31:14.099Z,8.60
2018-12-09T00:33:42.796Z,8.70
2018-12-09T00:36:11.181Z,8.70
2018-12-09T00:38:39.591Z,8.70
2018-12-09T00:41:08.027Z,8.60
2018-12-09T00:43:36.446Z,8.60
2018-12-09T00:46:04.971Z,8.60
2018-12-09T00:48:33.399Z,8.60
2018-12-09T00:51:01.849Z,8.50
2018-12-09T00:53:30.387Z,8.50
2018-12-09T00:55:59.007Z,8.50
2018-12-09T00:58:27.525Z,8.50
2018-12-09T01:00:55.981Z,8.30
2018-12-09T01:03:24.563Z,8.20
2018-12-09T01:05:53.041Z,8.20
2018-12-09T01:08:21.469Z,8.20
2018-12-09T01:10:49.888Z,8.40
2018-12-09T01:13:18.374Z,8.60
2018-12-09T01:15:46.819Z,8.60
2018-12-09T01:18:15.386Z,8.80
2018-12-09T01:20:43.861Z,8.80
2018-12-09T01:23:12.259Z,8.90
2018-12-09T01:25:40.675Z,8.90
2018-12-09T01:28:09.133Z,8.90
2018-12-09T01:30:37.554Z,9.00
2018-12-09T01:33:05.987Z,9.30
2018-12-09T01:35:34.507Z,9.30
2018-12-09T01:38:02.935Z,9.30
2018-12-09T01:40:35.610Z,9.70
2018-12-09T01:43:04.091Z,9.80
2018-12-09T01:45:32.511Z,9.80
2018-12-09T01:48:01.034Z,9.80
2018-12-09T01:50:29.586Z,9.90
2018-12-09T01:54:10.165Z,9.80
2018-12-09T01:56:39.148Z,9.80
2018-12-09T01:59:07.564Z,9.80
2018-12-09T02:01:36.047Z,9.90
2018-12-09T02:04:04.446Z,9.90
2018-12-09T02:06:33.275Z,9.80
2018-12-09T02:09:01.693Z,9.80
2018-12-09T02:11:30.107Z,9.80
2018-12-09T02:13:58.610Z,9.70
2018-12-09T02:16:27.018Z,9.70
2018-12-09T02:19:07.333Z,9.70
2018-12-09T02:21:35.762Z,9.60
2018-12-09T02:24:04.186Z,9.60
2018-12-09T02:26:33.121Z,9.60
2018-12-09T02:29:01.541Z,9.70
2018-12-09T02:31:29.984Z,9.50
2018-12-09T02:33:58.406Z,9.40
2018-12-09T02:36:26.813Z,9.30
2018-12-09T02:38:55.226Z,9.30
2018-12-09T02:41:23.731Z,9.20
2018-12-09T02:43:52.259Z,9.20
2018-12-09T02:46:20.698Z,9.10
2018-12-09T02:48:49.549Z,9.10
2018-12-09T02:51:18.084Z,9.00
2018-12-09T02:53:46.626Z,9.00
2018-12-09T02:56:15.023Z,8.90
2018-12-09T02:58:43.407Z,8.90
2018-12-09T03:01:11.837Z,8.90
2018-12-09T03:03:40.395Z,8.90
2018-12-09T03:06:08.895Z,8.90
2018-12-09T03:08:37.315Z,8.80
2018-12-09T03:11:06.298Z,8.80
2018-12-09T03:13:34.734Z,8.80
2018-12-09T03:16:03.155Z,9.20
2018-12-09T03:18:31.571Z,9.40
2018-12-09T03:21:00.041Z,9.40
2018-12-09T03:23:28.473Z,9.40
2018-12-09T03:25:56.972Z,9.50
2018-12-09T03:28:25.400Z,9.50
2018-12-09T03:30:53.839Z,9.40
2018-12-09T03:33:22.354Z,9.30
2018-12-09T03:35:50.763Z,9.30
2018-12-09T03:38:19.210Z,9.30
2018-12-09T03:40:47.675Z,9.30
2018-12-09T03:43:16.075Z,9.20
2018-12-09T03:45:44.839Z,9.10
2018-12-09T03:48:13.243Z,9.10
2018-12-09T03:50:41.650Z,9.00
2018-12-09T03:53:10.063Z,8.90
2018-12-09T03:55:38.495Z,8.90
2018-12-09T03:58:07.027Z,8.80
2018-12-09T04:00:35.455Z,8.70
2018-12-09T04:03:04.004Z,8.50
2018-12-09T04:05:32.398Z,8.40
2018-12-09T04:08:00.855Z,8.30
2018-12-09T04:10:29.274Z,8.10
2018-12-09T04:12:57.690Z,8.10
2018-12-09T04:15:26.210Z,8.10
2018-12-09T04:17:54.642Z,8.00
2018-12-09T04:20:23.464Z,8.00
2018-12-09T04:22:51.884Z,7.90
2018-12-09T04:25:20.303Z,7.90
2018-12-09T04:27:48.798Z,7.80
2018-12-09T04:30:17.236Z,7.60
2018-12-09T04:32:45.646Z,7.40
2018-12-09T04:35:14.055Z,7.40
2018-12-09T04:37:42.475Z,7.30
2018-12-09T04:40:10.966Z,7.30
2018-12-09T04:42:39.353Z,7.10
2018-12-09T04:45:07.788Z,7.00
2018-12-09T04:47:36.187Z,6.90
2018-12-09T04:50:05.892Z,6.80
2018-12-09T04:52:34.345Z,6.60
2018-12-09T04:55:03.046Z,6.40
2018-12-09T04:57:31.460Z,6.30
2018-12-09T05:00:10.963Z,6.20
2018-12-09T05:02:39.370Z,6.20
2018-12-09T05:05:08.090Z,6.10
2018-12-09T05:07:36.531Z,6.00
2018-12-09T05:10:05.539Z,6.00
2018-12-09T05:12:34.335Z,6.00
2018-12-09T05:15:02.735Z,6.00
2018-12-09T05:17:31.157Z,6.10
2018-12-09T05:19:59.638Z,6.20
2018-12-09T05:22:28.057Z,6.30
2018-12-09T05:24:56.485Z,6.40
2018-12-09T05:27:24.892Z,6.40
2018-12-09T05:29:53.374Z,6.40
2018-12-09T05:32:22.061Z,6.50
2018-12-09T05:34:50.483Z,6.50
2018-12-09T05:37:18.914Z,6.60
2018-12-09T05:39:47.875Z,6.60
2018-12-09T05:42:16.306Z,6.70
2018-12-09T05:44:44.775Z,6.70
2018-12-09T05:47:13.196Z,6.70
2018-12-09T05:49:41.635Z,6.80
2018-12-09T05:52:10.362Z,6.90
2018-12-09T05:54:38.774Z,6.90
2018-12-09T05:57:07.210Z,6.90
2018-12-09T05:59:35.660Z,7.00
2018-12-09T06:02:15.431Z,7.10
2018-12-09T06:04:43.881Z,7.10
2018-12-09T06:07:12.303Z,7.10
2018-12-09T06:09:40.735Z,7.10
2018-12-09T06:12:09.175Z,7.20
2018-12-09T06:14:37.920Z,7.20
2018-12-09T06:17:06.430Z,7.00
2018-12-09T06:19:34.890Z,7.00
2018-12-09T06:22:03.309Z,6.80
2018-12-09T06:24:31.793Z,6.90
2018-12-09T06:27:00.184Z,6.70
2018-12-09T06:29:28.719Z,6.60
2018-12-09T06:31:57.125Z,6.30
2018-12-09T06:34:25.551Z,5.80
2018-12-09T06:36:54.015Z,5.30
2018-12-09T06:39:22.432Z,4.90
2018-12-09T06:41:50.848Z,4.70
2018-12-09T06:44:19.285Z,4.60
2018-12-09T06:46:47.796Z,4.50
2018-12-09T06:49:16.235Z,4.40
2018-12-09T06:51:44.735Z,4.20
2018-12-09T06:54:13.195Z,4.30
2018-12-09T06:56:41.634Z,4.20
2018-12-09T06:59:10.096Z,4.20
2018-12-09T07:01:38.490Z,4.20
2018-12-09T07:04:07.324Z,4.20
2018-12-09T07:06:35.791Z,4.20
2018-12-09T07:09:05.591Z,4.20
2018-12-09T07:11:36.190Z,4.20
2018-12-09T07:14:05.441Z,4.20
2018-12-09T07:16:34.007Z,4.20
2018-12-09T07:19:02.561Z,4.20
2018-12-09T07:21:31.138Z,4.20
2018-12-09T07:23:59.657Z,4.20
2018-12-09T07:26:29.548Z,4.30
2018-12-09T07:28:58.322Z,4.30
2018-12-09T07:31:26.870Z,4.30
2018-12-09T07:33:55.526Z,4.20
2018-12-09T07:36:24.102Z,4.20
2018-12-09T07:38:52.755Z,4.30
2018-12-09T07:41:21.342Z,4.30
2018-12-09T07:43:49.956Z,4.30
2018-12-09T07:46:21.531Z,4.30
2018-12-09T07:48:50.288Z,4.40
2018-12-09T07:51:18.859Z,4.40
2018-12-09T07:53:47.424Z,4.40
2018-12-09T07:56:16.018Z,4.40
2018-12-09T07:58:44.700Z,4.40
2018-12-09T08:01:13.255Z,4.40
2018-12-09T08:03:41.730Z,4.40
2018-12-09T08:06:10.507Z,4.50
2018-12-09T08:08:39.031Z,4.50
2018-12-09T08:11:07.642Z,4.50
2018-12-09T08:13:36.164Z,4.60
2018-12-09T08:16:04.651Z,4.60
2018-12-09T08:18:33.406Z,4.60
2018-12-09T08:21:01.991Z,4.70
2018-12-09T08:23:30.527Z,4.60
2018-12-09T08:25:59.046Z,4.60
2018-12-09T08:28:27.688Z,4.60
2018-12-09T08:30:56.727Z,4.70
2018-12-09T08:33:25.868Z,4.60
2018-12-09T08:35:54.358Z,4.70
2018-12-09T08:38:23.048Z,4.80
2018-12-09T08:40:51.577Z,4.80
2018-12-09T08:43:20.082Z,4.80
2018-12-09T08:45:48.669Z,4.90
2018-12-09T08:48:17.273Z,4.90
2018-12-09T08:50:45.935Z,5.00
2018-12-09T08:53:17.285Z,5.10
2018-12-09T08:55:46.015Z,5.30
2018-12-09T08:58:14.691Z,5.40
2018-12-09T09:00:43.664Z,5.50
2018-12-09T09:03:22.274Z,5.60
2018-12-09T09:05:50.898Z,5.60
2018-12-09T09:08:19.847Z,5.70
2018-12-09T09:10:48.430Z,5.70
2018-12-09T09:13:17.051Z,5.70
2018-12-09T09:15:45.810Z,5.70
2018-12-09T09:18:14.427Z,5.60
2018-12-09T09:20:42.971Z,5.50
2018-12-09T09:23:11.452Z,5.40
2018-12-09T09:25:40.133Z,5.20
2018-12-09T09:28:11.722Z,5.20
2018-12-09T09:30:40.559Z,5.20
2018-12-09T09:33:09.386Z,5.10
2018-12-09T09:35:38.022Z,5.00
2018-12-09T09:38:06.592Z,5.10
2018-12-09T09:40:35.178Z,5.10
2018-12-09T09:43:03.659Z,5.20
2018-12-09T09:45:32.203Z,5.20
2018-12-09T09:48:00.679Z,5.10
2018-12-09T09:50:29.159Z,5.10
2018-12-09T09:52:57.847Z,5.00
2018-12-09T09:55:26.376Z,5.00
2018-12-09T09:57:55.179Z,5.00
2018-12-09T10:00:23.752Z,4.90
2018-12-09T10:02:52.270Z,4.90
2018-12-09T10:05:20.864Z,4.90
2018-12-09T10:07:49.464Z,4.80
2018-12-09T10:10:18.022Z,4.70
2018-12-09T10:12:46.653Z,4.70
2018-12-09T10:15:15.257Z,4.70
2018-12-09T10:17:43.870Z,4.70
2018-12-09T10:20:12.402Z,4.70
2018-12-09T10:22:40.943Z,4.60
2018-12-09T10:25:09.579Z,4.70
2018-12-09T10:27:38.157Z,4.80
2018-12-09T10:30:07.896Z,4.80
2018-12-09T10:32:36.745Z,4.90
2018-12-09T10:35:06.458Z,5.00
2018-12-09T10:37:35.001Z,5.10
2018-12-09T10:40:03.734Z,5.10
2018-12-09T10:42:32.403Z,5.30
2018-12-09T10:45:01.017Z,5.30
2018-12-09T10:47:29.744Z,5.50
2018-12-09T10:49:58.235Z,5.50
2018-12-09T10:52:26.727Z,5.50
2018-12-09T10:54:55.361Z,5.60
2018-12-09T10:57:23.878Z,5.70
2018-12-09T10:59:52.422Z,5.80
2018-12-09T11:02:20.906Z,5.80
2018-12-09T11:04:49.405Z,5.90
2018-12-09T11:07:18.023Z,5.90
2018-12-09T11:09:46.667Z,6.00
2018-12-09T11:12:15.358Z,6.00
2018-12-09T11:14:44.026Z,6.00
2018-12-09T11:17:12.663Z,6.00
2018-12-09T11:19:45.336Z,6.10
2018-12-09T11:22:13.870Z,6.10
2018-12-09T11:24:42.527Z,6.10
2018-12-09T11:27:11.121Z,6.20
2018-12-09T11:29:39.737Z,6.20
2018-12-09T11:32:08.301Z,6.20
2018-12-09T11:34:36.851Z,6.30
2018-12-09T11:37:05.410Z,6.40
2018-12-09T11:39:34.052Z,6.50
2018-12-09T11:42:02.609Z,6.60
2018-12-09T11:44:31.250Z,6.70
2018-12-09T11:46:59.991Z,6.80
2018-12-09T11:49:28.666Z,6.80
2018-12-09T11:51:57.239Z,6.90
2018-12-09T11:54:25.783Z,7.00
2018-12-09T11:56:54.285Z,7.00
2018-12-09T11:59:22.868Z,7.00
2018-12-09T12:01:51.516Z,7.00
2018-12-09T12:04:20.004Z,7.00
2018-12-09T12:06:48.530Z,7.00
2018-12-09T12:09:18.017Z,7.00
2018-12-09T12:11:47.090Z,7.00
2018-12-09T12:14:15.611Z,6.90
2018-12-09T12:16:44.172Z,6.90
2018-12-09T12:19:13.732Z,6.90
2018-12-09T12:21:42.362Z,6.90
2018-12-09T12:24:12.018Z,6.90
2018-12-09T12:26:40.655Z,6.90
2018-12-09T12:29:09.401Z,6.80
2018-12-09T12:31:38.310Z,6.70
2018-12-09T12:34:06.865Z,6.70
2018-12-09T12:36:37.953Z,6.70
2018-12-09T12:39:08.785Z,6.60
2018-12-09T12:41:37.428Z,6.50
2018-12-09T12:44:10.926Z,6.50
2018-12-09T12:46:43.905Z,6.40
2018-12-09T12:49:12.552Z,6.40
2018-12-09T12:51:41.175Z,6.40
2018-12-09T12:54:09.808Z,6.40
2018-12-09T12:56:38.343Z,6.40
2018-12-09T12:59:09.022Z,6.40
2018-12-09T13:01:38.742Z,6.40
2018-12-09T13:04:07.339Z,6.40
2018-12-09T13:06:37.284Z,6.40
2018-12-09T13:09:07.685Z,6.50
2018-12-09T13:11:37.863Z,6.50
2018-12-09T13:14:08.602Z,6.50
2018-12-09T13:16:39.462Z,6.50
2018-12-09T13:19:09.367Z,6.50
2018-12-09T13:21:39.340Z,6.50
2018-12-09T13:24:09.204Z,6.50
2018-12-09T13:26:39.172Z,6.50
2018-12-09T13:29:08.113Z,6.40
2018-12-09T13:31:37.823Z,6.40
2018-12-09T13:34:07.411Z,6.40
2018-12-09T13:36:38.069Z,6.40
2018-12-09T13:39:12.578Z,6.30
2018-12-09T13:41:42.320Z,6.30
2018-12-09T13:44:12.416Z,6.20
2018-12-09T13:46:43.728Z,6.20
2018-12-09T13:49:16.455Z,6.10
2018-12-09T13:51:52.910Z,6.20
2018-12-09T13:57:22.156Z,6.50
2018-12-09T13:59:53.477Z,6.40
2018-12-09T14:02:24.314Z,6.40
2018-12-09T14:04:58.270Z,6.10
2018-12-09T14:07:30.596Z,6.10
2018-12-09T14:10:14.048Z,5.90
2018-12-09T14:16:17.753Z,5.80
2018-12-09T14:26:26.452Z,5.50
2018-12-09T14:34:58.356Z,5.40
2018-12-09T14:37:33.840Z,5.40
2018-12-09T14:40:03.889Z,5.40
2018-12-09T14:42:34.049Z,5.30
2018-12-09T14:45:03.915Z,5.30
2018-12-09T14:47:33.323Z,5.40
2018-12-09T14:50:08.540Z,5.50
2018-12-09T14:52:39.988Z,5.30
2018-12-09T14:55:10.514Z,5.30
2018-12-09T14:57:40.363Z,5.20
2018-12-09T15:00:11.075Z,5.20
2018-12-09T15:02:40.428Z,5.20
2018-12-09T15:05:10.097Z,5.10
2018-12-09T15:07:39.245Z,5.20
2018-12-09T15:10:12.831Z,5.20
2018-12-09T15:12:42.406Z,5.30
2018-12-09T15:15:11.912Z,5.30
2018-12-09T15:17:41.825Z,5.30
2018-12-09T15:20:11.876Z,5.30
2018-12-09T15:22:45.853Z,5.40
2018-12-09T15:25:15.050Z,5.40
2018-12-09T15:27:44.317Z,5.40
2018-12-09T15:30:13.792Z,5.40
2018-12-09T15:32:43.336Z,5.40
2018-12-09T15:35:12.088Z,5.40
2018-12-09T15:37:40.803Z,5.40
2018-12-09T15:40:11.979Z,5.40
2018-12-09T15:42:41.371Z,5.40
2018-12-09T15:45:10.244Z,5.40
2018-12-09T15:47:39.295Z,5.40
2018-12-09T15:50:09.354Z,5.50
2018-12-09T15:52:40.418Z,5.50
2018-12-09T15:55:09.069Z,5.50
2018-12-09T15:57:38.141Z,5.50
2018-12-09T16:00:08.430Z,5.50
2018-12-09T16:02:49.463Z,5.50
2018-12-09T16:05:18.349Z,5.40
2018-12-09T16:07:47.800Z,5.40
2018-12-09T16:10:17.622Z,5.40
2018-12-09T16:12:50.934Z,5.40
2018-12-09T16:15:20.589Z,5.40
2018-12-09T16:20:28.931Z,5.20
2018-12-09T16:22:57.937Z,5.10
2018-12-09T16:25:26.989Z,5.00
2018-12-09T16:27:57.158Z,5.00
2018-12-09T16:30:27.053Z,5.00
2018-12-09T16:32:56.084Z,4.90
2018-12-09T16:35:26.793Z,5.00
2018-12-09T16:37:55.910Z,5.00
2018-12-09T16:40:26.099Z,5.00
2018-12-09T16:45:30.283Z,5.00
2018-12-09T16:48:03.126Z,4.90
2018-12-09T16:50:32.728Z,4.90
2018-12-09T16:53:01.691Z,4.80
2018-12-09T16:55:32.029Z,4.80
2018-12-09T16:58:02.915Z,4.90
2018-12-09T17:00:34.102Z,4.90
2018-12-09T17:03:03.230Z,4.90
2018-12-09T17:05:32.189Z,5.00
2018-12-09T17:08:01.715Z,5.00
2018-12-09T17:10:31.846Z,5.00
2018-12-09T17:13:00.806Z,5.10
2018-12-09T17:15:29.718Z,5.10
2018-12-09T17:20:41.031Z,5.20
2018-12-09T17:23:09.614Z,5.20
2018-12-09T17:25:38.809Z,5.20
2018-12-09T17:28:07.304Z,5.20
2018-12-09T17:30:36.181Z,5.30
2018-12-09T17:35:47.893Z,5.20
2018-12-09T17:38:17.345Z,5.20
2018-12-09T17:40:47.411Z,5.30
2018-12-09T17:43:21.931Z,5.30
2018-12-09T17:45:52.932Z,5.30
2018-12-09T17:48:22.117Z,5.30
2018-12-09T17:50:51.376Z,5.30
2018-12-09T17:53:20.354Z,5.30
2018-12-09T17:55:51.629Z,5.30
2018-12-09T17:58:20.951Z,5.20
2018-12-09T18:00:49.432Z,5.10
2018-12-09T18:05:58.830Z,5.00
2018-12-09T18:08:27.580Z,5.00
2018-12-09T18:10:56.362Z,5.00
2018-12-09T18:13:24.896Z,5.00
2018-12-09T18:16:00.757Z,4.90
2018-12-09T18:18:29.455Z,4.90
2018-12-09T18:20:58.128Z,4.90
2018-12-09T18:23:27.202Z,4.90
2018-12-09T18:25:56.492Z,4.90
2018-12-09T18:28:25.692Z,4.90
2018-12-09T18:30:54.356Z,5.00
2018-12-09T18:33:23.291Z,5.00
2018-12-09T18:35:53.240Z,5.00
2018-12-09T18:38:22.451Z,5.00
2018-12-09T18:40:51.743Z,5.00
2018-12-09T18:43:21.360Z,5.00
2018-12-09T18:45:50.826Z,5.00
2018-12-09T18:48:19.425Z,5.00
2018-12-09T18:50:48.498Z,5.00
2018-12-09T18:53:17.797Z,5.00
2018-12-09T18:55:47.049Z,5.10
2018-12-09T18:58:16.194Z,5.10
2018-12-09T19:00:45.350Z,5.10
2018-12-09T19:03:14.678Z,5.10
2018-12-09T19:05:44.078Z,5.10
2018-12-09T19:08:13.575Z,5.10
2018-12-09T19:10:42.320Z,5.10
2018-12-09T19:13:21.502Z,5.10
2018-12-09T19:15:50.652Z,5.10
2018-12-09T19:18:19.814Z,5.10
2018-12-09T19:20:59.146Z,5.10
2018-12-09T19:23:28.114Z,5.10
2018-12-09T19:25:56.901Z,5.10
2018-12-09T19:28:27.260Z,5.20
2018-12-09T19:30:58.950Z,5.20
2018-12-09T19:33:28.315Z,5.10
2018-12-09T19:35:58.393Z,5.20
2018-12-09T19:38:27.527Z,5.20
2018-12-09T19:41:01.544Z,5.20
2018-12-09T19:43:30.801Z,5.20
2018-12-09T19:46:00.144Z,5.10
2018-12-09T19:48:29.962Z,5.20
2018-12-09T19:51:14.514Z,5.20
2018-12-09T19:53:43.575Z,5.10
2018-12-09T19:56:12.482Z,5.20
2018-12-09T19:58:41.711Z,5.10
2018-12-09T20:04:19.074Z,5.20
2018-12-09T20:06:47.722Z,5.20
2018-12-09T20:09:16.481Z,5.20
2018-12-09T20:11:45.076Z,5.20
2018-12-09T20:14:14.191Z,5.20
2018-12-09T20:16:44.176Z,5.20
2018-12-09T20:19:13.547Z,5.20
2018-12-09T20:21:42.470Z,5.10
2018-12-09T20:24:11.015Z,5.10
2018-12-09T20:26:39.777Z,5.10
2018-12-09T20:29:08.910Z,5.10
2018-12-09T20:31:37.510Z,5.00
2018-12-09T20:34:06.139Z,5.10
2018-12-09T20:36:34.751Z,5.10
2018-12-09T20:39:04.266Z,5.00
2018-12-09T20:41:33.022Z,5.00
2018-12-09T20:44:01.601Z,5.00
2018-12-09T20:46:30.231Z,5.10
2018-12-09T20:48:59.309Z,5.00
2018-12-09T20:51:28.045Z,5.10
2018-12-09T20:53:56.714Z,5.00
2018-12-09T20:56:27.320Z,5.00
2018-12-09T20:58:56.067Z,5.00
2018-12-09T21:01:24.662Z,5.00
2018-12-09T21:03:54.118Z,5.00
2018-12-09T21:06:22.714Z,5.00
2018-12-09T21:08:51.818Z,5.00
2018-12-09T21:11:20.661Z,4.90
2018-12-09T21:13:49.650Z,4.90
2018-12-09T21:16:18.677Z,5.00
2018-12-09T21:18:47.843Z,5.00
2018-12-09T21:21:16.967Z,5.00
2018-12-09T21:23:46.032Z,4.90
2018-12-09T21:26:15.164Z,4.90
2018-12-09T21:28:43.952Z,4.90
2018-12-09T21:31:12.635Z,4.90
2018-12-09T21:33:41.629Z,4.90
2018-12-09T21:36:10.520Z,4.90
2018-12-09T21:38:39.799Z,4.90
2018-12-09T21:41:08.891Z,4.90
2018-12-09T21:43:38.011Z,4.90
2018-12-09T21:46:07.126Z,4.90
2018-12-09T21:48:36.307Z,4.90
2018-12-09T21:51:05.173Z,5.00
2018-12-09T21:53:34.760Z,5.00
2018-12-09T21:56:03.587Z,5.00
2018-12-09T21:58:32.892Z,4.90
2018-12-09T22:01:02.084Z,4.90
2018-12-09T22:03:31.151Z,4.90
2018-12-09T22:06:00.102Z,4.90
2018-12-09T22:08:28.882Z,4.90
2018-12-09T22:10:57.902Z,4.80
2018-12-09T22:13:27.305Z,4.80
2018-12-09T22:15:56.600Z,4.80
2018-12-09T22:18:25.519Z,4.70
2018-12-09T22:20:54.952Z,4.70
2018-12-09T22:23:23.593Z,4.70
2018-12-09T22:25:52.238Z,4.70
2018-12-09T22:28:20.947Z,4.70
2018-12-09T22:30:49.720Z,4.70
2018-12-09T22:33:18.487Z,4.70
2018-12-09T22:35:47.358Z,4.70
2018-12-09T22:38:16.113Z,4.70
2018-12-09T22:40:45.262Z,4.70
2018-12-09T22:43:15.147Z,4.70
2018-12-09T22:45:43.706Z,4.60
2018-12-09T22:48:12.642Z,4.60
2018-12-09T22:50:41.336Z,4.60
2018-12-09T22:53:10.196Z,4.60
2018-12-09T22:55:38.972Z,4.60
2018-12-09T22:58:07.749Z,4.60
2018-12-09T23:00:38.516Z,4.60
2018-12-09T23:03:07.325Z,4.60
2018-12-09T23:05:36.107Z,4.50
2018-12-09T23:08:04.867Z,4.50
2018-12-09T23:10:33.329Z,4.50
2018-12-09T23:13:02.095Z,4.50
2018-12-09T23:15:30.689Z,4.50
2018-12-09T23:17:59.542Z,4.50
2018-12-09T23:20:28.332Z,4.50
2018-12-09T23:22:57.280Z,4.40
2018-12-09T23:25:26.129Z,4.40
2018-12-09T23:27:54.895Z,4.40
2018-12-09T23:30:23.511Z,4.40
2018-12-09T23:32:52.374Z,4.40
2018-12-09T23:35:21.239Z,4.40
2018-12-09T23:37:50.001Z,4.40
2018-12-09T23:40:18.621Z,4.40
2018-12-09T23:42:47.467Z,4.40
2018-12-09T23:45:16.234Z,4.50
2018-12-09T23:47:44.895Z,4.50
2018-12-09T23:50:13.794Z,4.50
2018-12-09T23:52:42.663Z,4.50
2018-12-09T23:55:11.775Z,4.60
2018-12-09T23:57:40.757Z,4.60
